Time;durP1;ratioP1;P1;durP2;ratioP2;P2;SDS_P1;SDS_P2;PMS_P1;PMS_P2;Temp;Humidity;BMP_temperature;BMP_pressure;BME280_temperature;BME280_humidity;BME280_pressure;Samples;Min_cycle;Max_cycle;Signal;HPM_P1;HPM_P2
2021/07/28 00:00:51;;;;;;;1.63;1.52;;;;;;;;;;5010953;28;20457;-47
2021/07/28 00:03:18;;;;;;;2.95;1.98;;;;;;;;;;5011790;28;20095;-46
2021/07/28 00:05:45;;;;;;;1.20;1.10;;;;;;;;;;5013728;28;20452;-47
2021/07/28 00:08:11;;;;;;;2.92;1.38;;;;;;;;;;5010644;28;20112;-46
2021/07/28 00:10:38;;;;;;;1.70;1.40;;;;;;;;;;5012145;28;20073;-45
2021/07/28 00:13:05;;;;;;;2.20;1.98;;;;;;;;;;5011116;28;20359;-46
2021/07/28 00:15:31;;;;;;;1.10;1.10;;;;;;;;;;5004001;28;20046;-46
2021/07/28 00:18:03;;;;;;;1.20;1.00;;;;;;;;;;5012398;28;20042;-46
2021/07/28 00:23:14;;;;;;;1.35;1.25;;;;;;;;;;5008722;28;20042;-46
2021/07/28 00:25:44;;;;;;;3.22;1.38;;;;;;;;;;5008194;28;20097;-45
2021/07/28 00:28:14;;;;;;;1.35;1.25;;;;;;;;;;5012232;28;20096;-47
2021/07/28 00:30:41;;;;;;;4.88;1.33;;;;;;;;;;5011775;28;20597;-48
2021/07/28 00:33:08;;;;;;;4.78;1.38;;;;;;;;;;5010414;28;20073;-48
2021/07/28 00:35:35;;;;;;;2.53;2.42;;;;;;;;;;4996141;28;20057;-47
2021/07/28 00:38:03;;;;;;;1.85;1.00;;;;;;;;;;5012070;28;20104;-47
2021/07/28 00:40:30;;;;;;;2.25;1.38;;;;;;;;;;5000762;28;20145;-47
2021/07/28 00:43:15;;;;;;;1.83;1.33;;;;;;;;;;5011105;28;20469;-48
2021/07/28 00:45:43;;;;;;;2.15;1.10;;;;;;;;;;5010770;28;20069;-50
2021/07/28 00:48:10;;;;;;;6.70;1.58;;;;;;;;;;5009144;28;20470;-46
2021/07/28 00:50:37;;;;;;;2.72;1.30;;;;;;;;;;5011237;28;20045;-46
2021/07/28 00:53:04;;;;;;;1.88;1.30;;;;;;;;;;5011263;28;20390;-44
2021/07/28 00:55:31;;;;;;;2.17;1.20;;;;;;;;;;5012046;28;20068;-44
2021/07/28 00:57:58;;;;;;;1.73;1.60;;;;;;;;;;5008235;28;20038;-44
2021/07/28 01:00:26;;;;;;;1.60;1.50;;;;;;;;;;5010901;28;20038;-46
2021/07/28 01:02:52;;;;;;;3.65;1.10;;;;;;;;;;5011340;28;20117;-46
2021/07/28 01:05:19;;;;;;;2.40;1.13;;;;;;;;;;5010122;28;20374;-47
2021/07/28 01:07:46;;;;;;;1.58;1.10;;;;;;;;;;5008875;28;20038;-47
2021/07/28 01:10:13;;;;;;;1.63;1.13;;;;;;;;;;5010810;28;20057;-45
2021/07/28 01:12:51;;;;;;;3.67;1.25;;;;;;;;;;5011105;28;20565;-48
2021/07/28 01:18:05;;;;;;;2.75;1.20;;;;;;;;;;5009333;28;20288;-45
2021/07/28 01:20:39;;;;;;;1.77;1.30;;;;;;;;;;5008081;28;20503;-46
2021/07/28 01:23:13;;;;;;;1.27;1.20;;;;;;;;;;5011772;28;20100;-47
2021/07/28 01:25:40;;;;;;;3.92;1.33;;;;;;;;;;5008649;28;20125;-47
2021/07/28 01:28:06;;;;;;;1.25;1.10;;;;;;;;;;4999833;28;20046;-44
2021/07/28 01:30:33;;;;;;;1.17;1.10;;;;;;;;;;5009678;28;20062;-46
2021/07/28 01:33:00;;;;;;;1.95;1.40;;;;;;;;;;5008145;28;20505;-45
2021/07/28 01:35:30;;;;;;;3.03;1.65;;;;;;;;;;5012604;28;20042;-45
2021/07/28 01:37:57;;;;;;;2.05;1.30;;;;;;;;;;5006043;28;20429;-46
2021/07/28 01:40:23;;;;;;;1.50;1.42;;;;;;;;;;4996792;28;20058;-45
2021/07/28 01:42:50;;;;;;;4.93;1.60;;;;;;;;;;5006585;28;20426;-45
2021/07/28 01:45:17;;;;;;;2.00;1.42;;;;;;;;;;5002476;28;20533;-48
2021/07/28 01:47:45;;;;;;;4.00;1.40;;;;;;;;;;5011147;28;20054;-45
2021/07/28 01:50:12;;;;;;;1.35;1.25;;;;;;;;;;5009915;28;20038;-46
2021/07/28 01:52:40;;;;;;;1.48;1.38;;;;;;;;;;5008683;28;20096;-45
2021/07/28 01:55:07;;;;;;;1.58;1.58;;;;;;;;;;5011579;28;20120;-45
2021/07/28 01:57:52;;;;;;;3.70;1.27;;;;;;;;;;5010088;28;20033;-48
2021/07/28 02:00:19;;;;;;;5.38;1.40;;;;;;;;;;5010933;28;20084;-45
2021/07/28 02:02:46;;;;;;;1.20;1.20;;;;;;;;;;5006085;28;20446;-45
2021/07/28 02:05:13;;;;;;;1.45;1.00;;;;;;;;;;5009206;28;20517;-46
2021/07/28 02:07:39;;;;;;;1.33;1.33;;;;;;;;;;5011609;28;20173;-45
2021/07/28 02:10:06;;;;;;;2.22;1.65;;;;;;;;;;5009599;28;20534;-47
2021/07/28 02:12:33;;;;;;;2.65;2.13;;;;;;;;;;4992733;28;20081;-44
2021/07/28 02:15:00;;;;;;;1.40;1.30;;;;;;;;;;5010522;28;20470;-48
2021/07/28 02:17:27;;;;;;;1.27;1.17;;;;;;;;;;5010076;28;20034;-45
2021/07/28 02:19:54;;;;;;;1.73;1.30;;;;;;;;;;5008652;28;20058;-47
2021/07/28 02:22:21;;;;;;;1.25;1.20;;;;;;;;;;5009584;28;20033;-47
2021/07/28 02:24:47;;;;;;;2.80;1.95;;;;;;;;;;5004673;28;20505;-49
2021/07/28 02:27:14;;;;;;;1.58;1.48;;;;;;;;;;5006245;28;20474;-48
2021/07/28 02:29:41;;;;;;;1.52;1.52;;;;;;;;;;5006981;28;20116;-45
2021/07/28 02:32:08;;;;;;;2.25;1.17;;;;;;;;;;5010846;28;20117;-46
2021/07/28 02:34:35;;;;;;;3.10;1.52;;;;;;;;;;5008080;28;20050;-47
2021/07/28 02:37:02;;;;;;;1.50;1.40;;;;;;;;;;5009074;28;20041;-46
2021/07/28 02:39:29;;;;;;;1.65;1.55;;;;;;;;;;5002519;28;20043;-46
2021/07/28 02:41:56;;;;;;;1.58;1.48;;;;;;;;;;5006780;28;20042;-49
2021/07/28 02:44:22;;;;;;;1.63;1.25;;;;;;;;;;5010732;28;20486;-45
2021/07/28 02:46:49;;;;;;;1.30;1.17;;;;;;;;;;5007373;28;20556;-45
2021/07/28 02:49:16;;;;;;;2.38;1.23;;;;;;;;;;5009179;28;20049;-48
2021/07/28 02:51:43;;;;;;;1.42;1.33;;;;;;;;;;5009712;28;20088;-47
2021/07/28 02:54:10;;;;;;;1.67;1.58;;;;;;;;;;5007458;28;20092;-46
2021/07/28 02:56:38;;;;;;;2.47;1.42;;;;;;;;;;5000511;28;20594;-45
2021/07/28 02:59:04;;;;;;;1.40;1.30;;;;;;;;;;5006782;28;20037;-47
2021/07/28 03:01:32;;;;;;;5.78;1.52;;;;;;;;;;4995686;28;20084;-45
2021/07/28 03:03:59;;;;;;;3.17;1.50;;;;;;;;;;5009141;28;20042;-47
2021/07/28 03:06:26;;;;;;;1.40;1.17;;;;;;;;;;5006904;28;20041;-46
2021/07/28 03:08:53;;;;;;;2.10;1.45;;;;;;;;;;5006005;28;20545;-46
2021/07/28 03:11:19;;;;;;;2.65;1.58;;;;;;;;;;5009014;28;20371;-49
2021/07/28 03:13:46;;;;;;;1.48;1.20;;;;;;;;;;5008253;28;20046;-45
2021/07/28 03:16:13;;;;;;;2.03;1.60;;;;;;;;;;5001102;28;20037;-47
2021/07/28 03:18:40;;;;;;;2.00;1.30;;;;;;;;;;5006632;28;20080;-48
2021/07/28 03:21:07;;;;;;;2.20;1.40;;;;;;;;;;5004243;28;20116;-46
2021/07/28 03:23:33;;;;;;;1.27;1.23;;;;;;;;;;5010057;28;20034;-45
2021/07/28 03:26:01;;;;;;;1.80;1.70;;;;;;;;;;5002928;28;20666;-47
2021/07/28 03:28:27;;;;;;;1.27;1.27;;;;;;;;;;5006520;28;20066;-47
2021/07/28 03:30:54;;;;;;;2.05;1.45;;;;;;;;;;5006825;28;20042;-46
2021/07/28 03:33:21;;;;;;;3.00;1.30;;;;;;;;;;5006920;28;20105;-47
2021/07/28 03:35:47;;;;;;;2.13;1.20;;;;;;;;;;5003245;28;20130;-48
2021/07/28 03:38:14;;;;;;;4.00;1.27;;;;;;;;;;5000418;28;20439;-46
2021/07/28 03:40:41;;;;;;;3.13;1.73;;;;;;;;;;5006402;28;20581;-47
2021/07/28 03:43:08;;;;;;;2.75;1.30;;;;;;;;;;5005454;28;20057;-48
2021/07/28 03:45:34;;;;;;;4.40;1.40;;;;;;;;;;4995198;28;20465;-47
2021/07/28 03:48:01;;;;;;;2.17;1.73;;;;;;;;;;5008750;28;20099;-45
2021/07/28 03:50:28;;;;;;;2.28;1.50;;;;;;;;;;5008832;28;20121;-45
2021/07/28 03:53:00;;;;;;;2.03;1.42;;;;;;;;;;5003097;28;20544;-47
2021/07/28 03:55:26;;;;;;;1.58;1.48;;;;;;;;;;5007319;28;20037;-45
2021/07/28 03:57:53;;;;;;;3.17;1.65;;;;;;;;;;5009585;28;20362;-47
2021/07/28 04:00:20;;;;;;;2.15;1.70;;;;;;;;;;5007284;28;20427;-47
2021/07/28 04:02:47;;;;;;;2.03;1.40;;;;;;;;;;5009161;28;20046;-45
2021/07/28 04:05:14;;;;;;;1.80;1.70;;;;;;;;;;5006727;28;20124;-43
2021/07/28 04:07:41;;;;;;;1.70;1.60;;;;;;;;;;5009723;28;20054;-46
2021/07/28 04:10:09;;;;;;;2.13;1.50;;;;;;;;;;5009062;28;20479;-45
2021/07/28 04:12:35;;;;;;;5.47;1.95;;;;;;;;;;5013732;28;20100;-47
2021/07/28 04:15:03;;;;;;;3.78;2.03;;;;;;;;;;5012102;28;20085;-45
2021/07/28 04:17:29;;;;;;;3.67;2.38;;;;;;;;;;5009839;28;20080;-45
2021/07/28 04:19:59;;;;;;;2.75;2.10;;;;;;;;;;5007241;28;20066;-46
2021/07/28 04:22:25;;;;;;;2.83;1.50;;;;;;;;;;5011847;28;20066;-44
2021/07/28 04:24:52;;;;;;;3.65;2.13;;;;;;;;;;5013986;28;20457;-49
2021/07/28 04:27:19;;;;;;;1.75;1.65;;;;;;;;;;5007283;28;20042;-45
2021/07/28 04:29:46;;;;;;;1.55;1.45;;;;;;;;;;4996834;28;20030;-47
2021/07/28 04:32:13;;;;;;;1.77;1.67;;;;;;;;;;5010917;28;20379;-46
2021/07/28 04:34:39;;;;;;;4.22;1.95;;;;;;;;;;5010196;28;20445;-47
2021/07/28 04:37:06;;;;;;;7.03;1.85;;;;;;;;;;5013630;28;20600;-50
2021/07/28 04:39:33;;;;;;;2.65;2.15;;;;;;;;;;5009639;28;20606;-46
2021/07/28 04:42:00;;;;;;;2.83;1.58;;;;;;;;;;5007058;28;20430;-48
2021/07/28 04:44:27;;;;;;;2.20;1.58;;;;;;;;;;5008800;28;20033;-47
2021/07/28 04:46:55;;;;;;;3.88;1.80;;;;;;;;;;5010295;28;20100;-44
2021/07/28 04:49:22;;;;;;;1.90;1.77;;;;;;;;;;4997325;28;20499;-45
2021/07/28 04:51:49;;;;;;;1.67;1.55;;;;;;;;;;5007447;28;20057;-46
2021/07/28 04:54:15;;;;;;;4.00;1.70;;;;;;;;;;5006790;28;20042;-45
2021/07/28 04:56:42;;;;;;;1.75;1.60;;;;;;;;;;5012888;28;20046;-45
2021/07/28 04:59:09;;;;;;;4.53;1.70;;;;;;;;;;5005339;28;20489;-47
2021/07/28 05:01:35;;;;;;;2.30;2.17;;;;;;;;;;5002434;28;20042;-46
2021/07/28 05:04:03;;;;;;;2.00;1.90;;;;;;;;;;5009066;28;20038;-47
2021/07/28 05:06:30;;;;;;;4.30;2.03;;;;;;;;;;5011172;28;20124;-45
2021/07/28 05:08:57;;;;;;;2.63;2.53;;;;;;;;;;5000593;28;20038;-48
2021/07/28 05:11:23;;;;;;;3.00;2.13;;;;;;;;;;5004441;28;20697;-44
2021/07/28 05:13:50;;;;;;;2.33;2.22;;;;;;;;;;4999767;28;20050;-42
2021/07/28 05:16:17;;;;;;;2.95;2.38;;;;;;;;;;5006410;28;20057;-47
2021/07/28 05:18:44;;;;;;;4.55;1.45;;;;;;;;;;5000820;28;20034;-45
2021/07/28 05:21:10;;;;;;;5.90;2.15;;;;;;;;;;5001071;28;20043;-47
2021/07/28 05:23:37;;;;;;;2.33;2.22;;;;;;;;;;5003136;28;20033;-47
2021/07/28 05:26:04;;;;;;;2.72;1.90;;;;;;;;;;5010952;28;20096;-44
2021/07/28 05:28:31;;;;;;;3.72;1.83;;;;;;;;;;5008737;28;20387;-47
2021/07/28 05:30:57;;;;;;;2.25;2.15;;;;;;;;;;5010634;28;20104;-49
2021/07/28 05:33:25;;;;;;;4.93;2.15;;;;;;;;;;5001309;28;20054;-48
2021/07/28 05:35:51;;;;;;;2.97;2.13;;;;;;;;;;5006203;28;20041;-49
2021/07/28 05:38:18;;;;;;;1.65;1.55;;;;;;;;;;5010381;28;20486;-48
2021/07/28 05:40:49;;;;;;;2.80;1.50;;;;;;;;;;5011197;28;20125;-49
2021/07/28 05:43:16;;;;;;;2.40;1.75;;;;;;;;;;5004714;28;20041;-47
2021/07/28 05:45:42;;;;;;;4.05;1.98;;;;;;;;;;5003470;28;20035;-52
2021/07/28 05:48:09;;;;;;;3.97;2.03;;;;;;;;;;5012422;28;20066;-47
2021/07/28 05:50:37;;;;;;;2.80;1.75;;;;;;;;;;4993201;28;20470;-45
2021/07/28 05:53:04;;;;;;;4.72;1.80;;;;;;;;;;5003288;28;20133;-45
2021/07/28 05:55:31;;;;;;;4.05;2.65;;;;;;;;;;5000455;28;20054;-47
2021/07/28 05:57:59;;;;;;;3.55;2.50;;;;;;;;;;5005781;28;20027;-47
2021/07/28 06:00:26;;;;;;;6.75;4.45;;;;;;;;;;5005607;28;20091;-49
2021/07/28 06:02:53;;;;;;;5.15;2.80;;;;;;;;;;5007228;28;20079;-45
2021/07/28 06:05:20;;;;;;;2.83;2.53;;;;;;;;;;5001793;28;20048;-48
2021/07/28 06:07:47;;;;;;;3.10;2.63;;;;;;;;;;5001906;28;20033;-48
2021/07/28 06:10:16;;;;;;;3.83;1.88;;;;;;;;;;5010824;28;20453;-49
2021/07/28 06:12:43;;;;;;;8.70;1.75;;;;;;;;;;5009459;28;20048;-48
2021/07/28 06:15:10;;;;;;;3.55;2.08;;;;;;;;;;5007992;28;20053;-48
2021/07/28 06:17:37;;;;;;;3.10;1.90;;;;;;;;;;5005541;28;20108;-47
2021/07/28 06:20:04;;;;;;;2.85;1.70;;;;;;;;;;5009935;28;20418;-49
2021/07/28 06:22:31;;;;;;;1.40;1.30;;;;;;;;;;4993127;28;20647;-46
2021/07/28 06:24:58;;;;;;;4.40;1.17;;;;;;;;;;5009508;28;20117;-47
2021/07/28 06:27:25;;;;;;;3.55;1.75;;;;;;;;;;5006603;28;20054;-47
2021/07/28 06:29:52;;;;;;;1.80;1.52;;;;;;;;;;5008172;28;20127;-47
2021/07/28 06:32:20;;;;;;;2.05;1.48;;;;;;;;;;5006078;28;20117;-49
2021/07/28 06:34:47;;;;;;;6.05;1.52;;;;;;;;;;5006632;28;20050;-48
2021/07/28 06:37:14;;;;;;;1.20;1.13;;;;;;;;;;5008869;28;20125;-51
2021/07/28 06:39:41;;;;;;;3.38;1.65;;;;;;;;;;5007290;28;20068;-49
2021/07/28 06:42:08;;;;;;;3.58;1.77;;;;;;;;;;5011372;28;20053;-51
2021/07/28 06:44:35;;;;;;;3.78;1.40;;;;;;;;;;5009088;28;20041;-47
2021/07/28 06:47:01;;;;;;;2.22;1.60;;;;;;;;;;5000389;28;20080;-47
2021/07/28 06:49:28;;;;;;;4.55;1.67;;;;;;;;;;5009531;28;20041;-47
2021/07/28 06:51:55;;;;;;;8.98;1.25;;;;;;;;;;5005810;28;20516;-48
2021/07/28 06:54:22;;;;;;;3.80;1.45;;;;;;;;;;5011336;28;20038;-49
2021/07/28 06:56:48;;;;;;;2.92;1.63;;;;;;;;;;5006412;28;20045;-49
2021/07/28 06:59:15;;;;;;;2.60;1.70;;;;;;;;;;4998763;28;20041;-50
2021/07/28 07:01:42;;;;;;;1.98;1.48;;;;;;;;;;5001531;28;20438;-50
2021/07/28 07:04:09;;;;;;;1.88;1.00;;;;;;;;;;4999703;28;20033;-47
2021/07/28 07:06:35;;;;;;;1.77;1.02;;;;;;;;;;5008679;28;20046;-49
2021/07/28 07:09:02;;;;;;;2.92;1.20;;;;;;;;;;5008288;28;20103;-52
2021/07/28 07:11:29;;;;;;;1.58;1.30;;;;;;;;;;5008572;28;20474;-50
2021/07/28 07:13:56;;;;;;;2.97;1.20;;;;;;;;;;5000603;28;20054;-48
2021/07/28 07:16:23;;;;;;;2.08;0.90;;;;;;;;;;5006046;28;20046;-51
2021/07/28 07:18:50;;;;;;;6.57;1.52;;;;;;;;;;5000117;28;20037;-49
2021/07/28 07:21:16;;;;;;;2.33;1.00;;;;;;;;;;5005946;28;20041;-49
2021/07/28 07:23:43;;;;;;;4.78;1.40;;;;;;;;;;5008116;28;20475;-46
2021/07/28 07:26:10;;;;;;;3.35;1.45;;;;;;;;;;4999552;28;20113;-50
2021/07/28 07:28:37;;;;;;;1.77;1.25;;;;;;;;;;5002594;28;20092;-50
2021/07/28 07:31:07;;;;;;;2.28;1.00;;;;;;;;;;5002619;28;20392;-51
2021/07/28 07:33:40;;;;;;;2.42;0.80;;;;;;;;;;5008775;28;20046;-51
2021/07/28 07:36:18;;;;;;;2.47;0.90;;;;;;;;;;5007994;28;20049;-48
2021/07/28 07:38:45;;;;;;;3.10;1.33;;;;;;;;;;4998066;28;20098;-49
2021/07/28 07:41:13;;;;;;;3.03;1.10;;;;;;;;;;4974992;28;20050;-52
2021/07/28 07:43:40;;;;;;;0.80;0.80;;;;;;;;;;4996924;28;20031;-48
2021/07/28 07:46:07;;;;;;;0.80;0.80;;;;;;;;;;5013994;28;20073;-52
2021/07/28 07:48:34;;;;;;;2.13;0.70;;;;;;;;;;5012303;28;20104;-51
2021/07/28 07:51:01;;;;;;;0.80;0.80;;;;;;;;;;5013400;28;20046;-51
2021/07/28 07:53:28;;;;;;;2.35;1.52;;;;;;;;;;5008458;28;20049;-50
2021/07/28 07:55:57;;;;;;;0.95;0.70;;;;;;;;;;4996903;28;20084;-52
2021/07/28 07:58:24;;;;;;;1.77;1.10;;;;;;;;;;5013123;28;20121;-49
2021/07/28 08:00:50;;;;;;;3.28;0.90;;;;;;;;;;5009600;28;20069;-51
2021/07/28 08:03:17;;;;;;;0.85;0.80;;;;;;;;;;5011840;28;20072;-52
2021/07/28 08:05:44;;;;;;;1.75;0.90;;;;;;;;;;5012295;28;20045;-49
2021/07/28 08:08:12;;;;;;;1.17;0.70;;;;;;;;;;5012766;28;20045;-52
2021/07/28 08:10:39;;;;;;;1.45;1.10;;;;;;;;;;5012647;28;20375;-51
2021/07/28 08:13:08;;;;;;;0.98;0.88;;;;;;;;;;5011228;28;20042;-49
2021/07/28 08:15:37;;;;;;;1.00;0.80;;;;;;;;;;5012632;28;20041;-51
2021/07/28 08:18:05;;;;;;;1.92;0.88;;;;;;;;;;5013153;28;20053;-52
2021/07/28 08:20:31;;;;;;;0.70;0.70;;;;;;;;;;5006263;28;20069;-51
2021/07/28 08:22:58;;;;;;;1.08;0.70;;;;;;;;;;4999621;28;20088;-52
2021/07/28 08:25:25;;;;;;;1.30;0.70;;;;;;;;;;5006575;28;20473;-51
2021/07/28 08:27:51;;;;;;;3.75;0.70;;;;;;;;;;4995268;28;20489;-51
2021/07/28 08:30:18;;;;;;;0.77;0.70;;;;;;;;;;5005053;28;20073;-53
2021/07/28 08:32:45;;;;;;;1.80;0.80;;;;;;;;;;5001065;28;20046;-50
2021/07/28 08:35:12;;;;;;;0.65;0.65;;;;;;;;;;4978352;28;20081;-49
2021/07/28 08:37:42;;;;;;;2.90;0.65;;;;;;;;;;4986210;28;20038;-48
2021/07/28 08:40:10;;;;;;;2.45;0.70;;;;;;;;;;4976831;28;20035;-48
2021/07/28 08:42:38;;;;;;;1.10;0.70;;;;;;;;;;4991971;28;20145;-51
2021/07/28 08:45:06;;;;;;;0.90;0.70;;;;;;;;;;4989652;28;20066;-52
2021/07/28 08:47:34;;;;;;;1.65;0.75;;;;;;;;;;4991669;28;20066;-52
2021/07/28 08:50:02;;;;;;;0.70;0.70;;;;;;;;;;4985427;28;20050;-50
2021/07/28 08:52:29;;;;;;;1.15;0.70;;;;;;;;;;4977131;28;20046;-51
2021/07/28 08:54:55;;;;;;;2.13;0.80;;;;;;;;;;4991342;28;20490;-52
2021/07/28 08:57:22;;;;;;;1.40;0.70;;;;;;;;;;4990260;28;20106;-50
2021/07/28 08:59:55;;;;;;;0.98;0.80;;;;;;;;;;4990381;28;20049;-51
2021/07/28 09:02:21;;;;;;;1.35;0.70;;;;;;;;;;4985375;28;20574;-49
2021/07/28 09:04:55;;;;;;;1.70;0.95;;;;;;;;;;4980898;28;20038;-48
2021/07/28 09:07:22;;;;;;;2.08;0.80;;;;;;;;;;4980354;28;20060;-51
2021/07/28 09:09:53;;;;;;;1.05;0.80;;;;;;;;;;4986129;28;20465;-50
2021/07/28 09:12:20;;;;;;;1.70;0.90;;;;;;;;;;4990823;28;20039;-50
2021/07/28 09:14:56;;;;;;;1.40;0.80;;;;;;;;;;4983243;28;20097;-52
2021/07/28 09:17:27;;;;;;;0.90;0.80;;;;;;;;;;4981173;28;20042;-51
2021/07/28 09:19:55;;;;;;;2.42;0.90;;;;;;;;;;4989814;28;20057;-51
2021/07/28 09:22:32;;;;;;;1.08;0.73;;;;;;;;;;4990129;28;20109;-50
2021/07/28 09:27:49;;;;;;;3.00;0.75;;;;;;;;;;4975833;28;20050;-51
2021/07/28 09:30:17;;;;;;;2.15;0.70;;;;;;;;;;4985623;28;20042;-51
2021/07/28 09:33:00;;;;;;;0.93;0.73;;;;;;;;;;4977200;28;20097;-53
2021/07/28 09:35:45;;;;;;;0.88;0.70;;;;;;;;;;4984534;28;20070;-49
2021/07/28 09:38:30;;;;;;;1.90;0.70;;;;;;;;;;4984000;28;20039;-51
2021/07/28 09:41:18;;;;;;;2.53;0.70;;;;;;;;;;4982055;28;20901;-50
2021/07/28 09:43:51;;;;;;;1.20;0.80;;;;;;;;;;4976691;28;20046;-52
2021/07/28 09:46:31;;;;;;;2.95;0.75;;;;;;;;;;4987808;28;20042;-52
2021/07/28 09:48:59;;;;;;;7.30;0.70;;;;;;;;;;4984243;28;20034;-52
2021/07/28 09:51:26;;;;;;;0.90;0.70;;;;;;;;;;4991285;28;20121;-50
2021/07/28 09:53:57;;;;;;;1.70;0.70;;;;;;;;;;4989840;28;20078;-50
2021/07/28 09:56:28;;;;;;;0.70;0.70;;;;;;;;;;4973809;28;20518;-49
2021/07/28 09:58:55;;;;;;;0.70;0.70;;;;;;;;;;4982878;28;20532;-51
2021/07/28 10:01:23;;;;;;;2.97;0.80;;;;;;;;;;4977903;28;20042;-52
2021/07/28 10:03:50;;;;;;;1.20;0.80;;;;;;;;;;4986360;28;20125;-53
2021/07/28 10:06:19;;;;;;;1.02;0.90;;;;;;;;;;4989716;28;20122;-51
2021/07/28 10:08:46;;;;;;;1.00;0.60;;;;;;;;;;4985372;28;20431;-53
2021/07/28 10:11:13;;;;;;;2.00;0.90;;;;;;;;;;4992972;28;20439;-53
2021/07/28 10:13:41;;;;;;;0.70;0.70;;;;;;;;;;4989437;28;20100;-53
2021/07/28 10:16:08;;;;;;;2.00;0.75;;;;;;;;;;4988755;28;20038;-52
2021/07/28 10:18:35;;;;;;;0.73;0.73;;;;;;;;;;4984172;28;20066;-51
2021/07/28 10:21:02;;;;;;;4.10;0.70;;;;;;;;;;4989429;28;20124;-52
2021/07/28 10:23:30;;;;;;;1.95;0.60;;;;;;;;;;4989825;28;20117;-52
2021/07/28 10:25:57;;;;;;;1.30;0.80;;;;;;;;;;4988492;28;20062;-52
2021/07/28 10:28:23;;;;;;;1.20;0.60;;;;;;;;;;4990256;28;20046;-52
2021/07/28 10:31:09;;;;;;;1.33;1.08;;;;;;;;;;4985746;28;20046;-48
2021/07/28 10:33:44;;;;;;;2.22;0.70;;;;;;;;;;4989267;28;20495;-47
2021/07/28 10:36:10;;;;;;;7.00;0.70;;;;;;;;;;5008359;28;20092;-50
2021/07/28 10:38:51;;;;;;;2.25;0.70;;;;;;;;;;5007216;28;20506;-52
2021/07/28 10:41:38;;;;;;;2.38;0.60;;;;;;;;;;5010295;28;20049;-52
2021/07/28 10:44:09;;;;;;;2.70;0.80;;;;;;;;;;5005925;28;20141;-53
2021/07/28 10:46:54;;;;;;;2.22;0.68;;;;;;;;;;5003053;28;20073;-52
2021/07/28 10:49:34;;;;;;;2.28;0.70;;;;;;;;;;5006753;28;20160;-53
2021/07/28 10:52:01;;;;;;;3.22;0.80;;;;;;;;;;5001497;28;20104;-52
2021/07/28 10:54:48;;;;;;;2.85;0.80;;;;;;;;;;5009449;28;20052;-52
2021/07/28 10:57:55;;;;;;;2.75;0.80;;;;;;;;;;5009755;28;20501;-52
2021/07/28 11:00:39;;;;;;;0.70;0.70;;;;;;;;;;5006922;28;20033;-52
2021/07/28 11:03:10;;;;;;;0.63;0.60;;;;;;;;;;4997078;28;20398;-52
2021/07/28 11:05:41;;;;;;;1.63;0.70;;;;;;;;;;5008085;28;20410;-52
2021/07/28 11:08:09;;;;;;;1.25;0.80;;;;;;;;;;5009937;28;20076;-51
2021/07/28 11:10:45;;;;;;;1.40;0.80;;;;;;;;;;5007481;28;20141;-52
2021/07/28 11:13:13;;;;;;;0.85;0.75;;;;;;;;;;5009951;28;20042;-54
2021/07/28 11:15:40;;;;;;;1.20;0.63;;;;;;;;;;5001876;28;20034;-53
2021/07/28 11:18:07;;;;;;;2.10;0.63;;;;;;;;;;5000907;28;20431;-53
2021/07/28 11:20:35;;;;;;;1.58;0.77;;;;;;;;;;5004036;28;20138;-54
2021/07/28 11:23:20;;;;;;;2.97;0.70;;;;;;;;;;4995509;28;20077;-53
2021/07/28 11:25:47;;;;;;;1.15;0.63;;;;;;;;;;4996480;28;20050;-54
2021/07/28 11:28:17;;;;;;;0.82;0.70;;;;;;;;;;5001780;28;20030;-53
2021/07/28 11:30:44;;;;;;;1.45;1.00;;;;;;;;;;4989877;28;20073;-52
2021/07/28 11:33:13;;;;;;;3.05;1.00;;;;;;;;;;5006466;28;20386;-52
2021/07/28 11:35:43;;;;;;;3.28;0.70;;;;;;;;;;5007374;28;20529;-54
2021/07/28 11:38:14;;;;;;;2.95;0.80;;;;;;;;;;5008005;28;20038;-46
2021/07/28 11:40:42;;;;;;;1.80;0.70;;;;;;;;;;5003734;28;20038;-48
2021/07/28 11:43:22;;;;;;;0.70;0.70;;;;;;;;;;4994501;28;20046;-47
2021/07/28 11:45:49;;;;;;;3.10;0.60;;;;;;;;;;5005599;28;20038;-46
2021/07/28 11:48:34;;;;;;;1.98;0.75;;;;;;;;;;5003457;28;20054;-47
2021/07/28 11:51:06;;;;;;;1.35;0.70;;;;;;;;;;5007861;28;20088;-46
2021/07/28 11:53:33;;;;;;;1.38;0.95;;;;;;;;;;5009119;28;20046;-46
2021/07/28 11:56:10;;;;;;;2.08;0.63;;;;;;;;;;5008690;28;20089;-47
2021/07/28 11:58:44;;;;;;;1.27;0.65;;;;;;;;;;5005777;28;20368;-46
2021/07/28 12:01:17;;;;;;;1.65;0.68;;;;;;;;;;5003346;28;20066;-45
2021/07/28 12:03:59;;;;;;;3.17;0.70;;;;;;;;;;5006610;28;20038;-47
2021/07/28 12:06:33;;;;;;;1.92;0.88;;;;;;;;;;5008873;28;20049;-45
2021/07/28 12:09:18;;;;;;;1.70;0.70;;;;;;;;;;5008220;28;20050;-46
2021/07/28 12:11:46;;;;;;;3.08;0.70;;;;;;;;;;5006986;28;20062;-45
2021/07/28 12:14:33;;;;;;;3.88;0.73;;;;;;;;;;5021864;28;20070;-47
2021/07/28 12:17:01;;;;;;;2.83;0.93;;;;;;;;;;5004034;28;20536;-46
2021/07/28 12:19:31;;;;;;;1.50;1.08;;;;;;;;;;4999752;28;20052;-46
2021/07/28 12:22:02;;;;;;;3.70;0.80;;;;;;;;;;5001171;28;20426;-46
2021/07/28 12:24:55;;;;;;;12.98;0.85;;;;;;;;;;5011628;28;20033;-46
2021/07/28 12:27:25;;;;;;;2.95;0.70;;;;;;;;;;5009444;28;20133;-46
2021/07/28 12:29:57;;;;;;;2.20;0.63;;;;;;;;;;5006926;28;20084;-46
2021/07/28 12:32:38;;;;;;;1.05;1.02;;;;;;;;;;5009238;28;20046;-46
2021/07/28 12:35:05;;;;;;;2.45;0.70;;;;;;;;;;5007705;28;20058;-48
2021/07/28 12:37:32;;;;;;;5.47;0.70;;;;;;;;;;5009964;28;20053;-47
2021/07/28 12:39:59;;;;;;;4.38;0.70;;;;;;;;;;5011952;28;20046;-53
2021/07/28 12:42:29;;;;;;;0.60;0.60;;;;;;;;;;5012177;28;20041;-54
2021/07/28 12:44:56;;;;;;;2.63;0.73;;;;;;;;;;5013846;28;20279;-50
2021/07/28 12:47:23;;;;;;;1.20;0.75;;;;;;;;;;4999564;28;20141;-52
2021/07/28 12:49:51;;;;;;;2.25;0.70;;;;;;;;;;5010306;28;20030;-50
2021/07/28 12:52:18;;;;;;;2.17;0.68;;;;;;;;;;4998874;28;20038;-50
2021/07/28 12:54:45;;;;;;;1.55;0.60;;;;;;;;;;5011036;28;20042;-52
2021/07/28 12:57:14;;;;;;;1.77;0.70;;;;;;;;;;5011008;28;20054;-50
2021/07/28 12:59:41;;;;;;;1.23;0.70;;;;;;;;;;4994797;28;20100;-52
2021/07/28 13:02:08;;;;;;;3.45;0.70;;;;;;;;;;5012227;28;20110;-52
2021/07/28 13:04:35;;;;;;;2.20;0.80;;;;;;;;;;5010457;28;20056;-51
2021/07/28 13:07:12;;;;;;;1.15;0.70;;;;;;;;;;5011967;28;20046;-52
2021/07/28 13:09:39;;;;;;;1.15;0.90;;;;;;;;;;5003850;28;20487;-51
2021/07/28 13:12:06;;;;;;;1.70;0.70;;;;;;;;;;4997405;28;20502;-49
2021/07/28 13:14:33;;;;;;;1.67;0.60;;;;;;;;;;5012796;28;20046;-50
2021/07/28 13:17:00;;;;;;;2.15;0.70;;;;;;;;;;5008976;28;20096;-52
2021/07/28 13:19:27;;;;;;;1.02;0.70;;;;;;;;;;5010534;28;20042;-52
2021/07/28 13:21:54;;;;;;;2.25;0.80;;;;;;;;;;5005309;28;20042;-52
2021/07/28 13:24:20;;;;;;;0.60;0.60;;;;;;;;;;4998220;28;20034;-47
2021/07/28 13:26:47;;;;;;;1.58;0.85;;;;;;;;;;5012554;28;20038;-52
2021/07/28 13:29:15;;;;;;;2.45;0.80;;;;;;;;;;5010525;28;20528;-53
2021/07/28 13:31:42;;;;;;;2.05;0.60;;;;;;;;;;5005432;28;20565;-50
2021/07/28 13:34:09;;;;;;;1.85;0.77;;;;;;;;;;5019264;28;20045;-52
2021/07/28 13:36:36;;;;;;;1.58;0.60;;;;;;;;;;5010975;28;20038;-50
2021/07/28 13:39:03;;;;;;;0.60;0.60;;;;;;;;;;5011328;28;20060;-53
2021/07/28 13:41:30;;;;;;;4.25;0.70;;;;;;;;;;5009145;28;20053;-50
2021/07/28 13:43:57;;;;;;;1.52;0.65;;;;;;;;;;5008942;28;20035;-51
2021/07/28 13:46:24;;;;;;;1.60;0.70;;;;;;;;;;5010132;28;20548;-52
2021/07/28 13:48:51;;;;;;;3.50;0.60;;;;;;;;;;5003855;28;20196;-52
2021/07/28 13:51:18;;;;;;;2.35;0.50;;;;;;;;;;5000493;28;20363;-51
2021/07/28 13:53:45;;;;;;;2.47;0.50;;;;;;;;;;5004691;28;20486;-52
2021/07/28 13:56:11;;;;;;;3.08;0.70;;;;;;;;;;4994850;28;20054;-51
2021/07/28 13:58:38;;;;;;;9.43;0.65;;;;;;;;;;5010966;28;20661;-50
2021/07/28 14:01:05;;;;;;;0.60;0.60;;;;;;;;;;5008933;28;21347;-52
2021/07/28 14:03:33;;;;;;;2.00;0.60;;;;;;;;;;5011814;28;20058;-51
2021/07/28 14:06:00;;;;;;;3.22;0.70;;;;;;;;;;5009180;28;20049;-49
2021/07/28 14:08:28;;;;;;;3.40;0.60;;;;;;;;;;4995442;28;20049;-52
2021/07/28 14:10:56;;;;;;;0.60;0.60;;;;;;;;;;5019902;28;20045;-52
2021/07/28 14:13:22;;;;;;;1.40;0.60;;;;;;;;;;5014349;28;20417;-52
2021/07/28 14:15:49;;;;;;;1.95;0.63;;;;;;;;;;5009652;28;20124;-52
2021/07/28 14:18:16;;;;;;;1.52;0.73;;;;;;;;;;4977208;28;20557;-53
2021/07/28 14:20:44;;;;;;;3.05;0.52;;;;;;;;;;5007383;28;20161;-53
2021/07/28 14:23:11;;;;;;;2.45;0.60;;;;;;;;;;5000898;28;20428;-53
2021/07/28 14:25:38;;;;;;;4.35;0.60;;;;;;;;;;5002856;28;20346;-51
2021/07/28 14:28:05;;;;;;;2.42;0.60;;;;;;;;;;5010583;28;20097;-52
2021/07/28 14:30:32;;;;;;;1.38;0.60;;;;;;;;;;5003330;28;20050;-53
2021/07/28 14:32:58;;;;;;;0.50;0.50;;;;;;;;;;5002000;28;20038;-52
2021/07/28 14:35:25;;;;;;;0.50;0.50;;;;;;;;;;5003734;28;20037;-51
2021/07/28 14:37:52;;;;;;;1.42;0.50;;;;;;;;;;5008256;28;20125;-50
2021/07/28 14:40:19;;;;;;;2.15;0.43;;;;;;;;;;5008951;28;20037;-50
2021/07/28 14:42:46;;;;;;;3.30;0.57;;;;;;;;;;5003151;28;20034;-49
2021/07/28 14:45:13;;;;;;;2.83;0.50;;;;;;;;;;4999100;28;20038;-52
2021/07/28 14:47:43;;;;;;;2.60;0.70;;;;;;;;;;5010373;28;20092;-53
2021/07/28 14:50:10;;;;;;;2.35;0.55;;;;;;;;;;5008626;28;20046;-51
2021/07/28 14:52:37;;;;;;;1.30;0.50;;;;;;;;;;5007696;28;20117;-52
2021/07/28 14:55:05;;;;;;;2.38;0.82;;;;;;;;;;5009844;28;20038;-50
2021/07/28 14:57:32;;;;;;;2.33;0.70;;;;;;;;;;5007117;28;20606;-52
2021/07/28 14:59:58;;;;;;;3.55;1.10;;;;;;;;;;4994254;28;20066;-52